EFW3TW EGKK-LPFR
Flight info
| Callsign | EFW3TW |
|---|---|
| Flight time | N/A |
| Altitude | 35000 |
| Route | IMVUR N63 SAM M195 LORKU DCT POZOF DCT BALDA DCT ABUPI DCT ORVED DCT UPULO DCT ALAGU |
| Aircraft | A321/M-SDE3FGHIRWY/LB1 |
Departure
| Time | 2026-05-06 18:47 |
|---|---|
| Airport | London Gatwick Airport (EGKK) |
Arrival
| Time | N/A |
|---|---|
| Airport | Faro - Gago Coutinho International Airport (LPFR) |
| Time | Latitude | Longitude | Altitude | Speed | Heading |
|---|---|---|---|---|---|
| 2026-05-06 18:03 | 51.15466 | -0.17089 | 205 ft | 0 kts | 348° |
| 2026-05-06 18:32 | 51.15462 | -0.17088 | 205 ft | 2 kts | 346° |
| 2026-05-06 18:33 | 51.15444 | -0.17079 | 214 ft | 3 kts | 329° |
| 2026-05-06 18:33 | 51.15429 | -0.17061 | 207 ft | 3 kts | 302° |
| 2026-05-06 18:33 | 51.15422 | -0.17035 | 205 ft | 3 kts | 266° |
| 2026-05-06 18:33 | 51.15423 | -0.17023 | 205 ft | 0 kts | 258° |
| 2026-05-06 18:37 | 51.15422 | -0.17025 | 205 ft | 1 kts | 258° |
| 2026-05-06 18:38 | 51.15414 | -0.17086 | 213 ft | 9 kts | 258° |
| 2026-05-06 18:38 | 51.15393 | -0.17187 | 211 ft | 11 kts | 245° |
| 2026-05-06 18:38 | 51.15361 | -0.17314 | 207 ft | 13 kts | 250° |
| 2026-05-06 18:38 | 51.15306 | -0.17347 | 209 ft | 8 kts | 145° |
| 2026-05-06 18:39 | 51.15298 | -0.17357 | 213 ft | 1 kts | 255° |
| 2026-05-06 18:39 | 51.15297 | -0.17458 | 205 ft | 15 kts | 261° |
| 2026-05-06 18:39 | 51.15278 | -0.17624 | 205 ft | 16 kts | 257° |
| 2026-05-06 18:40 | 51.15228 | -0.17976 | 216 ft | 17 kts | 257° |
| 2026-05-06 18:40 | 51.15201 | -0.18164 | 216 ft | 18 kts | 257° |
| 2026-05-06 18:40 | 51.15181 | -0.18361 | 207 ft | 18 kts | 263° |
| 2026-05-06 18:40 | 51.15154 | -0.18563 | 210 ft | 19 kts | 258° |
| 2026-05-06 18:41 | 51.15127 | -0.18774 | 214 ft | 20 kts | 256° |
| 2026-05-06 18:41 | 51.15095 | -0.18988 | 207 ft | 20 kts | 257° |
| 2026-05-06 18:41 | 51.15063 | -0.19207 | 205 ft | 21 kts | 257° |
| 2026-05-06 18:41 | 51.15032 | -0.19432 | 207 ft | 21 kts | 258° |
| 2026-05-06 18:42 | 51.15001 | -0.19660 | 210 ft | 22 kts | 257° |
| 2026-05-06 18:42 | 51.14966 | -0.19894 | 208 ft | 22 kts | 259° |
| 2026-05-06 18:42 | 51.14938 | -0.20142 | 214 ft | 23 kts | 258° |
| 2026-05-06 18:42 | 51.14903 | -0.20387 | 204 ft | 23 kts | 257° |
| 2026-05-06 18:43 | 51.14869 | -0.20604 | 213 ft | 17 kts | 237° |
| 2026-05-06 18:43 | 51.14767 | -0.20706 | 212 ft | 18 kts | 207° |
| 2026-05-06 18:43 | 51.14702 | -0.20717 | 208 ft | 0 kts | 169° |
| 2026-05-06 18:45 | 51.14701 | -0.20716 | 208 ft | 1 kts | 169° |
| 2026-05-06 18:45 | 51.14648 | -0.20700 | 216 ft | 11 kts | 169° |
| 2026-05-06 18:46 | 51.14597 | -0.20634 | 209 ft | 10 kts | 100° |
| 2026-05-06 18:46 | 51.14602 | -0.20579 | 213 ft | 0 kts | 77° |
| 2026-05-06 18:46 | 51.14603 | -0.20576 | 212 ft | 2 kts | 77° |
| 2026-05-06 18:47 | 51.14636 | -0.20331 | 209 ft | 56 kts | 78° |
| 2026-05-06 18:47 | 51.14772 | -0.19359 | 212 ft | 121 kts | 78° |
| 2026-05-06 18:47 | 51.14986 | -0.17788 | 229 ft | 168 kts | 77° |
| 2026-05-06 18:47 | 51.15226 | -0.15966 | 976 ft | 162 kts | 77° |
| 2026-05-06 18:48 | 51.15454 | -0.14178 | 1640 ft | 168 kts | 75° |
| 2026-05-06 18:48 | 51.15715 | -0.12280 | 1926 ft | 186 kts | 74° |
| 2026-05-06 18:48 | 51.16017 | -0.10151 | 2117 ft | 208 kts | 75° |
| 2026-05-06 18:48 | 51.16356 | -0.07836 | 2425 ft | 223 kts | 71° |
| 2026-05-06 18:49 | 51.17180 | -0.05782 | 2918 ft | 225 kts | 36° |
| 2026-05-06 18:49 | 51.18601 | -0.04972 | 3000 ft | 219 kts | 358° |
| 2026-05-06 18:49 | 51.20101 | -0.05402 | 3006 ft | 220 kts | 347° |
| 2026-05-06 18:49 | 51.21538 | -0.06207 | 3008 ft | 220 kts | 326° |
| 2026-05-06 18:50 | 51.22519 | -0.08059 | 3011 ft | 228 kts | 293° |
| 2026-05-06 18:50 | 51.22688 | -0.10699 | 3303 ft | 254 kts | 263° |
| 2026-05-06 18:50 | 51.22373 | -0.13522 | 3929 ft | 261 kts | 261° |
| 2026-05-06 18:50 | 51.22037 | -0.16387 | 4720 ft | 263 kts | 260° |
| 2026-05-06 18:51 | 51.21696 | -0.19272 | 5472 ft | 266 kts | 260° |
| 2026-05-06 18:51 | 51.21353 | -0.22183 | 6214 ft | 269 kts | 260° |
| 2026-05-06 18:51 | 51.21007 | -0.25131 | 6915 ft | 271 kts | 261° |
| 2026-05-06 18:51 | 51.20659 | -0.28100 | 7606 ft | 274 kts | 261° |
| 2026-05-06 18:52 | 51.20315 | -0.31036 | 8286 ft | 276 kts | 261° |
| 2026-05-06 18:52 | 51.19962 | -0.34077 | 8979 ft | 279 kts | 261° |
| 2026-05-06 18:52 | 51.19595 | -0.37125 | 9664 ft | 282 kts | 260° |
| 2026-05-06 18:52 | 51.19197 | -0.40225 | 10293 ft | 286 kts | 260° |
| 2026-05-06 18:53 | 51.18784 | -0.43337 | 10914 ft | 288 kts | 259° |
| 2026-05-06 18:53 | 51.18365 | -0.46471 | 11546 ft | 290 kts | 259° |
| 2026-05-06 18:53 | 51.17924 | -0.49641 | 12024 ft | 300 kts | 255° |
| 2026-05-06 18:53 | 51.17345 | -0.52220 | 12135 ft | 317 kts | 250° |
| 2026-05-06 18:54 | 51.16547 | -0.55440 | 12260 ft | 335 kts | 249° |
| 2026-05-06 18:54 | 51.15646 | -0.58936 | 12565 ft | 346 kts | 249° |
| 2026-05-06 18:54 | 51.14713 | -0.62496 | 13109 ft | 350 kts | 249° |
| 2026-05-06 18:54 | 51.13772 | -0.66090 | 13688 ft | 353 kts | 249° |
| 2026-05-06 18:55 | 51.12835 | -0.69675 | 14216 ft | 356 kts | 249° |
| 2026-05-06 18:55 | 51.11886 | -0.73324 | 14748 ft | 358 kts | 249° |
| 2026-05-06 18:55 | 51.10937 | -0.76998 | 15279 ft | 360 kts | 249° |
| 2026-05-06 18:55 | 51.09982 | -0.80699 | 15816 ft | 363 kts | 249° |